sensor_id;sensor_type;location;lat;lon;timestamp;pressure;altitude;pressure_sealevel;temperature;humidity
20987;BME280;10652;50.306;8.570;2023-05-02T00:03:00;98059.56;;;10.61;86.00
20987;BME280;10652;50.306;8.570;2023-05-02T00:07:02;98070.63;;;10.68;86.25
20987;BME280;10652;50.306;8.570;2023-05-02T00:11:05;98062.63;;;10.71;85.34
20987;BME280;10652;50.306;8.570;2023-05-02T00:15:07;98059.91;;;10.72;85.38
20987;BME280;10652;50.306;8.570;2023-05-02T00:19:10;98048.69;;;10.69;85.16
20987;BME280;10652;50.306;8.570;2023-05-02T00:23:12;98063.81;;;10.64;85.16
20987;BME280;10652;50.306;8.570;2023-05-02T00:27:14;98064.13;;;10.58;85.19
20987;BME280;10652;50.306;8.570;2023-05-02T00:31:16;98064.34;;;10.53;85.69
20987;BME280;10652;50.306;8.570;2023-05-02T00:35:18;98066.75;;;10.39;86.88
20987;BME280;10652;50.306;8.570;2023-05-02T00:39:20;98069.00;;;10.28;86.77
20987;BME280;10652;50.306;8.570;2023-05-02T00:43:23;98080.78;;;10.19;87.82
20987;BME280;10652;50.306;8.570;2023-05-02T00:47:25;98080.34;;;10.10;87.82
20987;BME280;10652;50.306;8.570;2023-05-02T00:51:27;98079.78;;;10.03;88.29
20987;BME280;10652;50.306;8.570;2023-05-02T00:55:31;98080.19;;;9.94;88.63
20987;BME280;10652;50.306;8.570;2023-05-02T00:59:35;98078.72;;;9.87;89.30
20987;BME280;10652;50.306;8.570;2023-05-02T01:08:09;98070.59;;;9.73;91.00
20987;BME280;10652;50.306;8.570;2023-05-02T01:12:56;98075.22;;;9.66;91.59
20987;BME280;10652;50.306;8.570;2023-05-02T01:17:02;98081.63;;;9.59;91.99
20987;BME280;10652;50.306;8.570;2023-05-02T01:21:08;98085.50;;;9.50;92.26
20987;BME280;10652;50.306;8.570;2023-05-02T01:25:39;98087.75;;;9.39;93.73
20987;BME280;10652;50.306;8.570;2023-05-02T01:29:49;98089.03;;;9.29;95.79
20987;BME280;10652;50.306;8.570;2023-05-02T01:33:56;98088.50;;;9.21;95.81
20987;BME280;10652;50.306;8.570;2023-05-02T01:38:01;98097.41;;;9.17;96.87
20987;BME280;10652;50.306;8.570;2023-05-02T01:42:04;98101.03;;;9.13;97.86
20987;BME280;10652;50.306;8.570;2023-05-02T01:46:08;98095.94;;;9.10;98.08
20987;BME280;10652;50.306;8.570;2023-05-02T01:50:13;98097.66;;;9.11;99.69
20987;BME280;10652;50.306;8.570;2023-05-02T01:54:19;98103.06;;;9.28;99.76
20987;BME280;10652;50.306;8.570;2023-05-02T01:58:24;98106.19;;;9.16;98.71
20987;BME280;10652;50.306;8.570;2023-05-02T02:02:28;98112.69;;;9.06;99.30
20987;BME280;10652;50.306;8.570;2023-05-02T02:06:31;98118.31;;;8.97;100.00
20987;BME280;10652;50.306;8.570;2023-05-02T02:10:42;98114.22;;;8.90;100.00
20987;BME280;10652;50.306;8.570;2023-05-02T02:14:50;98118.84;;;8.83;100.00
20987;BME280;10652;50.306;8.570;2023-05-02T02:18:58;98132.97;;;8.79;100.00
20987;BME280;10652;50.306;8.570;2023-05-02T02:23:06;98129.84;;;8.69;100.00
20987;BME280;10652;50.306;8.570;2023-05-02T02:27:09;98133.63;;;8.62;100.00
20987;BME280;10652;50.306;8.570;2023-05-02T02:31:11;98130.38;;;8.56;100.00
20987;BME280;10652;50.306;8.570;2023-05-02T02:35:13;98127.94;;;8.51;100.00
20987;BME280;10652;50.306;8.570;2023-05-02T02:39:22;98131.44;;;8.50;100.00
20987;BME280;10652;50.306;8.570;2023-05-02T02:51:51;98136.06;;;8.44;100.00
20987;BME280;10652;50.306;8.570;2023-05-02T02:55:59;98147.50;;;8.41;100.00
20987;BME280;10652;50.306;8.570;2023-05-02T03:00:11;98152.00;;;8.38;100.00
20987;BME280;10652;50.306;8.570;2023-05-02T03:04:15;98159.13;;;8.34;100.00
20987;BME280;10652;50.306;8.570;2023-05-02T03:08:19;98166.28;;;8.29;100.00
20987;BME280;10652;50.306;8.570;2023-05-02T03:12:21;98174.34;;;8.23;100.00
20987;BME280;10652;50.306;8.570;2023-05-02T03:16:35;98184.97;;;8.18;100.00
20987;BME280;10652;50.306;8.570;2023-05-02T03:20:40;98192.03;;;8.15;100.00
20987;BME280;10652;50.306;8.570;2023-05-02T03:24:43;98187.81;;;8.11;100.00
20987;BME280;10652;50.306;8.570;2023-05-02T03:28:47;98194.06;;;8.07;100.00
20987;BME280;10652;50.306;8.570;2023-05-02T03:32:55;98190.75;;;8.02;100.00
20987;BME280;10652;50.306;8.570;2023-05-02T03:36:58;98197.00;;;7.98;100.00
20987;BME280;10652;50.306;8.570;2023-05-02T03:41:00;98198.91;;;7.93;100.00
20987;BME280;10652;50.306;8.570;2023-05-02T03:45:03;98203.44;;;7.88;100.00
20987;BME280;10652;50.306;8.570;2023-05-02T03:49:05;98218.44;;;7.82;100.00
20987;BME280;10652;50.306;8.570;2023-05-02T03:53:08;98214.09;;;7.81;100.00
20987;BME280;10652;50.306;8.570;2023-05-02T03:57:20;98216.38;;;7.92;100.00
20987;BME280;10652;50.306;8.570;2023-05-02T04:01:22;98225.22;;;7.88;100.00
20987;BME280;10652;50.306;8.570;2023-05-02T04:05:25;98235.84;;;7.83;100.00
20987;BME280;10652;50.306;8.570;2023-05-02T04:09:27;98230.78;;;7.79;100.00
20987;BME280;10652;50.306;8.570;2023-05-02T04:13:35;98238.75;;;7.74;100.00
20987;BME280;10652;50.306;8.570;2023-05-02T04:17:38;98242.38;;;7.70;100.00
20987;BME280;10652;50.306;8.570;2023-05-02T04:21:42;98239.78;;;7.70;100.00
20987;BME280;10652;50.306;8.570;2023-05-02T04:25:52;98245.50;;;7.81;100.00
20987;BME280;10652;50.306;8.570;2023-05-02T04:29:58;98257.38;;;7.92;100.00
20987;BME280;10652;50.306;8.570;2023-05-02T04:34:01;98258.03;;;7.98;100.00
20987;BME280;10652;50.306;8.570;2023-05-02T04:38:10;98260.94;;;8.17;100.00
20987;BME280;10652;50.306;8.570;2023-05-02T04:42:12;98274.91;;;8.16;100.00
20987;BME280;10652;50.306;8.570;2023-05-02T04:46:22;98278.31;;;8.18;100.00
20987;BME280;10652;50.306;8.570;2023-05-02T04:50:25;98278.06;;;8.25;100.00
20987;BME280;10652;50.306;8.570;2023-05-02T04:54:31;98277.84;;;8.32;100.00
20987;BME280;10652;50.306;8.570;2023-05-02T04:58:33;98284.78;;;8.33;100.00
20987;BME280;10652;50.306;8.570;2023-05-02T05:02:41;98283.94;;;8.32;100.00
20987;BME280;10652;50.306;8.570;2023-05-02T05:06:46;98291.69;;;8.35;100.00
20987;BME280;10652;50.306;8.570;2023-05-02T05:10:51;98300.84;;;8.48;100.00
20987;BME280;10652;50.306;8.570;2023-05-02T05:14:54;98301.22;;;8.62;100.00
20987;BME280;10652;50.306;8.570;2023-05-02T05:18:59;98316.28;;;8.81;100.00
20987;BME280;10652;50.306;8.570;2023-05-02T05:23:01;98310.09;;;8.82;100.00
20987;BME280;10652;50.306;8.570;2023-05-02T05:27:04;98324.88;;;8.84;100.00
20987;BME280;10652;50.306;8.570;2023-05-02T05:31:07;98329.56;;;9.46;100.00
20987;BME280;10652;50.306;8.570;2023-05-02T05:35:11;98331.53;;;10.49;100.00
20987;BME280;10652;50.306;8.570;2023-05-02T05:39:14;98334.38;;;10.85;100.00
20987;BME280;10652;50.306;8.570;2023-05-02T05:43:18;98350.75;;;10.50;97.44
20987;BME280;10652;50.306;8.570;2023-05-02T05:47:20;98344.31;;;10.17;96.11
20987;BME280;10652;50.306;8.570;2023-05-02T05:51:24;98344.78;;;10.04;96.85
20987;BME280;10652;50.306;8.570;2023-05-02T05:55:30;98355.53;;;9.98;97.23
20987;BME280;10652;50.306;8.570;2023-05-02T05:59:34;98349.66;;;10.14;97.26
20987;BME280;10652;50.306;8.570;2023-05-02T06:03:38;98348.72;;;10.36;96.30
20987;BME280;10652;50.306;8.570;2023-05-02T06:07:40;98349.75;;;10.74;94.29
20987;BME280;10652;50.306;8.570;2023-05-02T06:11:42;98349.50;;;14.29;89.96
20987;BME280;10652;50.306;8.570;2023-05-02T06:15:44;98343.47;;;17.94;60.73
20987;BME280;10652;50.306;8.570;2023-05-02T06:19:47;98357.69;;;19.80;49.06
20987;BME280;10652;50.306;8.570;2023-05-02T06:23:49;98353.50;;;21.37;47.85
20987;BME280;10652;50.306;8.570;2023-05-02T06:27:51;98359.03;;;22.84;42.10
20987;BME280;10652;50.306;8.570;2023-05-02T06:31:54;98355.66;;;23.11;40.56
20987;BME280;10652;50.306;8.570;2023-05-02T06:35:57;98360.53;;;23.91;39.50
20987;BME280;10652;50.306;8.570;2023-05-02T06:40:02;98371.63;;;21.54;40.82
20987;BME280;10652;50.306;8.570;2023-05-02T06:44:05;98373.28;;;21.25;41.42
20987;BME280;10652;50.306;8.570;2023-05-02T06:48:07;98394.78;;;20.16;43.07
20987;BME280;10652;50.306;8.570;2023-05-02T06:52:10;98405.84;;;19.33;45.75
20987;BME280;10652;50.306;8.570;2023-05-02T06:56:12;98414.66;;;18.39;46.83
20987;BME280;10652;50.306;8.570;2023-05-02T07:00:18;98421.16;;;16.29;51.52
20987;BME280;10652;50.306;8.570;2023-05-02T07:04:20;98430.88;;;15.15;55.36
20987;BME280;10652;50.306;8.570;2023-05-02T07:08:23;98430.66;;;14.27;59.15
20987;BME280;10652;50.306;8.570;2023-05-02T07:12:25;98441.66;;;13.55;62.15
20987;BME280;10652;50.306;8.570;2023-05-02T07:16:27;98450.53;;;12.85;65.62
20987;BME280;10652;50.306;8.570;2023-05-02T07:20:29;98460.69;;;12.57;69.77
20987;BME280;10652;50.306;8.570;2023-05-02T07:24:31;98468.44;;;12.60;70.49
20987;BME280;10652;50.306;8.570;2023-05-02T07:28:33;98472.72;;;12.98;70.02
20987;BME280;10652;50.306;8.570;2023-05-02T07:32:36;98470.69;;;13.03;68.41
20987;BME280;10652;50.306;8.570;2023-05-02T07:36:38;98479.84;;;13.31;67.80
20987;BME280;10652;50.306;8.570;2023-05-02T07:40:40;98480.28;;;13.04;66.23
20987;BME280;10652;50.306;8.570;2023-05-02T07:44:42;98481.59;;;12.79;66.98
20987;BME280;10652;50.306;8.570;2023-05-02T07:48:44;98489.88;;;12.71;68.48
20987;BME280;10652;50.306;8.570;2023-05-02T07:52:46;98482.88;;;12.53;69.53
20987;BME280;10652;50.306;8.570;2023-05-02T07:56:48;98484.47;;;12.55;70.77
20987;BME280;10652;50.306;8.570;2023-05-02T08:00:50;98486.25;;;12.91;69.80
20987;BME280;10652;50.306;8.570;2023-05-02T08:04:53;98497.97;;;12.85;69.28
20987;BME280;10652;50.306;8.570;2023-05-02T08:08:55;98493.84;;;12.80;68.99
20987;BME280;10652;50.306;8.570;2023-05-02T08:12:57;98500.47;;;12.88;69.31
20987;BME280;10652;50.306;8.570;2023-05-02T08:16:59;98501.38;;;12.87;69.73
20987;BME280;10652;50.306;8.570;2023-05-02T08:21:02;98519.06;;;12.85;68.41
20987;BME280;10652;50.306;8.570;2023-05-02T08:25:04;98525.50;;;12.61;70.52
20987;BME280;10652;50.306;8.570;2023-05-02T08:29:06;98532.50;;;12.43;71.91
20987;BME280;10652;50.306;8.570;2023-05-02T08:33:08;98532.91;;;12.34;72.27
20987;BME280;10652;50.306;8.570;2023-05-02T08:37:10;98532.72;;;12.39;71.80
20987;BME280;10652;50.306;8.570;2023-05-02T08:41:15;98523.78;;;12.60;72.59
20987;BME280;10652;50.306;8.570;2023-05-02T08:45:18;98533.38;;;13.16;69.03
20987;BME280;10652;50.306;8.570;2023-05-02T08:49:21;98534.13;;;13.53;68.22
20987;BME280;10652;50.306;8.570;2023-05-02T08:53:23;98529.97;;;13.82;67.45
20987;BME280;10652;50.306;8.570;2023-05-02T08:57:29;98539.00;;;14.11;64.50
20987;BME280;10652;50.306;8.570;2023-05-02T09:01:34;98544.97;;;14.15;62.32
20987;BME280;10652;50.306;8.570;2023-05-02T09:05:40;98557.81;;;14.38;60.27
20987;BME280;10652;50.306;8.570;2023-05-02T09:09:42;98549.97;;;14.52;59.79
20987;BME280;10652;50.306;8.570;2023-05-02T09:17:47;98554.25;;;14.22;60.17
20987;BME280;10652;50.306;8.570;2023-05-02T09:21:50;98559.31;;;13.93;60.76
20987;BME280;10652;50.306;8.570;2023-05-02T09:25:52;98553.94;;;14.12;61.76
20987;BME280;10652;50.306;8.570;2023-05-02T09:30:21;98561.13;;;14.26;60.33
20987;BME280;10652;50.306;8.570;2023-05-02T09:34:23;98565.31;;;14.13;60.92
20987;BME280;10652;50.306;8.570;2023-05-02T09:38:25;98562.47;;;14.33;61.93
20987;BME280;10652;50.306;8.570;2023-05-02T09:42:31;98557.13;;;14.34;59.75
20987;BME280;10652;50.306;8.570;2023-05-02T09:46:42;98558.19;;;14.63;59.03
20987;BME280;10652;50.306;8.570;2023-05-02T09:50:45;98564.00;;;14.70;58.24
20987;BME280;10652;50.306;8.570;2023-05-02T09:54:47;98567.16;;;14.76;57.95
20987;BME280;10652;50.306;8.570;2023-05-02T09:59:10;98558.09;;;15.12;55.22
20987;BME280;10652;50.306;8.570;2023-05-02T10:03:15;98560.91;;;15.09;54.50
20987;BME280;10652;50.306;8.570;2023-05-02T10:07:20;98560.47;;;15.01;55.91
20987;BME280;10652;50.306;8.570;2023-05-02T10:11:23;98562.03;;;14.73;53.98
20987;BME280;10652;50.306;8.570;2023-05-02T10:15:29;98551.28;;;14.61;55.39
20987;BME280;10652;50.306;8.570;2023-05-02T10:19:41;98554.03;;;14.75;56.14
20987;BME280;10652;50.306;8.570;2023-05-02T10:23:46;98559.47;;;14.87;56.24
20987;BME280;10652;50.306;8.570;2023-05-02T10:27:49;98559.47;;;14.87;55.06
20987;BME280;10652;50.306;8.570;2023-05-02T10:31:52;98555.31;;;14.83;53.98
20987;BME280;10652;50.306;8.570;2023-05-02T10:35:54;98542.66;;;14.88;54.37
20987;BME280;10652;50.306;8.570;2023-05-02T10:39:57;98546.41;;;15.00;52.55
20987;BME280;10652;50.306;8.570;2023-05-02T10:44:00;98547.06;;;15.04;51.89
20987;BME280;10652;50.306;8.570;2023-05-02T10:52:32;98549.88;;;15.46;51.08
20987;BME280;10652;50.306;8.570;2023-05-02T11:06:03;98555.59;;;15.54;49.75
20987;BME280;10652;50.306;8.570;2023-05-02T11:18:26;98549.88;;;15.46;47.56
20987;BME280;10652;50.306;8.570;2023-05-02T11:22:31;98549.34;;;15.55;47.10
20987;BME280;10652;50.306;8.570;2023-05-02T11:26:33;98549.03;;;15.46;48.01
20987;BME280;10652;50.306;8.570;2023-05-02T11:30:43;98539.19;;;15.63;47.35
20987;BME280;10652;50.306;8.570;2023-05-02T11:34:46;98540.38;;;15.88;47.94
20987;BME280;10652;50.306;8.570;2023-05-02T11:38:51;98535.03;;;15.73;47.28
20987;BME280;10652;50.306;8.570;2023-05-02T11:42:55;98531.19;;;15.93;48.16
20987;BME280;10652;50.306;8.570;2023-05-02T11:46:57;98536.97;;;16.42;48.12
20987;BME280;10652;50.306;8.570;2023-05-02T11:51:00;98541.13;;;16.60;47.87
20987;BME280;10652;50.306;8.570;2023-05-02T11:55:09;98538.72;;;16.84;48.32
20987;BME280;10652;50.306;8.570;2023-05-02T11:59:12;98541.16;;;16.87;45.95
20987;BME280;10652;50.306;8.570;2023-05-02T12:03:28;98544.72;;;16.45;45.41
20987;BME280;10652;50.306;8.570;2023-05-02T12:11:36;98571.47;;;15.54;49.34
20987;BME280;10652;50.306;8.570;2023-05-02T12:15:39;98581.22;;;15.08;50.18
20987;BME280;10652;50.306;8.570;2023-05-02T12:19:42;98580.97;;;14.97;51.65
20987;BME280;10652;50.306;8.570;2023-05-02T12:23:45;98582.94;;;14.78;52.89
20987;BME280;10652;50.306;8.570;2023-05-02T12:28:02;98586.34;;;14.96;52.55
20987;BME280;10652;50.306;8.570;2023-05-02T12:32:04;98581.53;;;15.18;51.90
20987;BME280;10652;50.306;8.570;2023-05-02T12:36:07;98590.47;;;15.62;51.58
20987;BME280;10652;50.306;8.570;2023-05-02T12:40:15;98594.53;;;15.98;49.58
20987;BME280;10652;50.306;8.570;2023-05-02T12:44:34;98588.13;;;16.30;46.12
20987;BME280;10652;50.306;8.570;2023-05-02T12:48:36;98583.19;;;16.24;47.68
20987;BME280;10652;50.306;8.570;2023-05-02T12:52:46;98583.53;;;16.04;47.48
20987;BME280;10652;50.306;8.570;2023-05-02T12:56:49;98590.56;;;16.19;47.91
20987;BME280;10652;50.306;8.570;2023-05-02T13:00:52;98602.59;;;16.67;47.90
20987;BME280;10652;50.306;8.570;2023-05-02T13:04:55;98597.75;;;16.45;47.60
20987;BME280;10652;50.306;8.570;2023-05-02T13:08:57;98606.16;;;16.09;48.03
20987;BME280;10652;50.306;8.570;2023-05-02T13:12:59;98612.88;;;16.01;48.39
20987;BME280;10652;50.306;8.570;2023-05-02T13:17:02;98609.72;;;15.80;48.48
20987;BME280;10652;50.306;8.570;2023-05-02T13:21:05;98613.13;;;15.82;47.86
20987;BME280;10652;50.306;8.570;2023-05-02T13:25:08;98613.00;;;15.69;48.60
20987;BME280;10652;50.306;8.570;2023-05-02T13:29:10;98622.25;;;15.62;48.83
20987;BME280;10652;50.306;8.570;2023-05-02T13:33:13;98620.00;;;15.55;49.02
20987;BME280;10652;50.306;8.570;2023-05-02T13:37:15;98622.81;;;15.67;47.68
20987;BME280;10652;50.306;8.570;2023-05-02T13:41:17;98625.16;;;15.42;46.84
20987;BME280;10652;50.306;8.570;2023-05-02T13:45:20;98626.97;;;15.26;47.18
20987;BME280;10652;50.306;8.570;2023-05-02T13:49:22;98617.28;;;15.41;48.09
20987;BME280;10652;50.306;8.570;2023-05-02T13:53:24;98620.16;;;15.67;46.89
20987;BME280;10652;50.306;8.570;2023-05-02T13:57:26;98635.91;;;15.70;46.23
20987;BME280;10652;50.306;8.570;2023-05-02T14:01:28;98629.94;;;15.51;46.88
20987;BME280;10652;50.306;8.570;2023-05-02T14:05:30;98628.16;;;15.05;47.32
20987;BME280;10652;50.306;8.570;2023-05-02T14:09:32;98631.47;;;14.77;47.66
20987;BME280;10652;50.306;8.570;2023-05-02T14:13:35;98628.84;;;14.44;48.01
20987;BME280;10652;50.306;8.570;2023-05-02T14:17:37;98633.63;;;14.20;48.75
20987;BME280;10652;50.306;8.570;2023-05-02T14:21:39;98616.44;;;14.29;49.43
20987;BME280;10652;50.306;8.570;2023-05-02T14:25:41;98637.09;;;14.38;47.30
20987;BME280;10652;50.306;8.570;2023-05-02T14:29:44;98641.59;;;14.36;47.25
20987;BME280;10652;50.306;8.570;2023-05-02T14:33:46;98637.28;;;14.51;47.97
20987;BME280;10652;50.306;8.570;2023-05-02T14:37:48;98644.63;;;14.78;47.96
20987;BME280;10652;50.306;8.570;2023-05-02T14:41:50;98648.88;;;14.65;48.70
20987;BME280;10652;50.306;8.570;2023-05-02T14:45:52;98662.25;;;14.45;49.20
20987;BME280;10652;50.306;8.570;2023-05-02T14:49:54;98661.06;;;14.35;48.91
20987;BME280;10652;50.306;8.570;2023-05-02T14:53:56;98662.25;;;14.45;48.26
20987;BME280;10652;50.306;8.570;2023-05-02T14:57:58;98670.81;;;14.50;48.66
20987;BME280;10652;50.306;8.570;2023-05-02T15:02:00;98672.06;;;14.60;49.35
20987;BME280;10652;50.306;8.570;2023-05-02T15:06:03;98681.31;;;14.52;49.20
20987;BME280;10652;50.306;8.570;2023-05-02T15:10:05;98691.44;;;14.43;49.00
20987;BME280;10652;50.306;8.570;2023-05-02T15:14:07;98682.22;;;14.35;48.79
20987;BME280;10652;50.306;8.570;2023-05-02T15:18:09;98684.38;;;14.27;48.58
20987;BME280;10652;50.306;8.570;2023-05-02T15:22:12;98689.22;;;14.19;48.78
20987;BME280;10652;50.306;8.570;2023-05-02T15:26:14;98696.38;;;14.17;47.87
20987;BME280;10652;50.306;8.570;2023-05-02T15:30:16;98700.88;;;14.15;47.95
20987;BME280;10652;50.306;8.570;2023-05-02T15:34:19;98690.69;;;14.07;47.79
20987;BME280;10652;50.306;8.570;2023-05-02T15:38:22;98698.88;;;14.02;47.28
20987;BME280;10652;50.306;8.570;2023-05-02T15:42:24;98705.25;;;13.98;47.36
20987;BME280;10652;50.306;8.570;2023-05-02T15:46:26;98696.22;;;14.02;47.46
20987;BME280;10652;50.306;8.570;2023-05-02T15:50:28;98694.81;;;13.95;48.34
20987;BME280;10652;50.306;8.570;2023-05-02T15:54:30;98707.84;;;13.81;48.90
20987;BME280;10652;50.306;8.570;2023-05-02T15:58:33;98704.06;;;13.51;48.78
20987;BME280;10652;50.306;8.570;2023-05-02T16:02:35;98712.19;;;13.28;48.91
20987;BME280;10652;50.306;8.570;2023-05-02T16:06:38;98710.78;;;13.39;49.22
20987;BME280;10652;50.306;8.570;2023-05-02T16:10:43;98706.19;;;13.43;49.86
20987;BME280;10652;50.306;8.570;2023-05-02T16:14:45;98711.13;;;13.50;49.09
20987;BME280;10652;50.306;8.570;2023-05-02T16:18:47;98709.28;;;13.52;48.66
20987;BME280;10652;50.306;8.570;2023-05-02T16:22:49;98713.19;;;13.44;48.28
20987;BME280;10652;50.306;8.570;2023-05-02T16:26:52;98711.31;;;13.46;47.71
20987;BME280;10652;50.306;8.570;2023-05-02T16:30:54;98714.06;;;13.44;47.70
20987;BME280;10652;50.306;8.570;2023-05-02T16:34:56;98702.47;;;13.47;47.73
20987;BME280;10652;50.306;8.570;2023-05-02T16:38:58;98705.91;;;13.49;47.56
20987;BME280;10652;50.306;8.570;2023-05-02T16:43:00;98708.19;;;13.38;46.68
20987;BME280;10652;50.306;8.570;2023-05-02T16:47:02;98720.03;;;13.29;46.98
20987;BME280;10652;50.306;8.570;2023-05-02T16:51:04;98712.78;;;13.16;47.39
20987;BME280;10652;50.306;8.570;2023-05-02T16:55:06;98721.63;;;13.14;49.20
20987;BME280;10652;50.306;8.570;2023-05-02T16:59:09;98722.03;;;13.05;49.90
20987;BME280;10652;50.306;8.570;2023-05-02T17:03:12;98716.41;;;12.94;50.79
20987;BME280;10652;50.306;8.570;2023-05-02T17:07:14;98729.13;;;12.66;51.36
20987;BME280;10652;50.306;8.570;2023-05-02T17:11:16;98733.75;;;12.41;51.70
20987;BME280;10652;50.306;8.570;2023-05-02T17:15:19;98746.38;;;12.33;52.02
20987;BME280;10652;50.306;8.570;2023-05-02T17:19:21;98744.13;;;12.23;51.34
20987;BME280;10652;50.306;8.570;2023-05-02T17:23:23;98743.81;;;12.11;51.44
20987;BME280;10652;50.306;8.570;2023-05-02T17:27:25;98744.00;;;12.06;51.42
20987;BME280;10652;50.306;8.570;2023-05-02T17:31:28;98749.59;;;11.99;51.90
20987;BME280;10652;50.306;8.570;2023-05-02T17:35:30;98754.78;;;12.00;57.10
20987;BME280;10652;50.306;8.570;2023-05-02T17:39:32;98753.34;;;12.34;54.24
20987;BME280;10652;50.306;8.570;2023-05-02T17:43:34;98748.94;;;12.14;51.01
20987;BME280;10652;50.306;8.570;2023-05-02T17:47:38;98749.88;;;11.91;51.24
20987;BME280;10652;50.306;8.570;2023-05-02T17:51:40;98759.56;;;11.69;51.73
20987;BME280;10652;50.306;8.570;2023-05-02T17:55:43;98769.25;;;11.47;52.22
20987;BME280;10652;50.306;8.570;2023-05-02T17:59:45;98767.31;;;11.28;52.77
20987;BME280;10652;50.306;8.570;2023-05-02T18:03:47;98763.56;;;11.12;53.11
20987;BME280;10652;50.306;8.570;2023-05-02T18:07:49;98764.09;;;10.97;53.74
20987;BME280;10652;50.306;8.570;2023-05-02T18:11:51;98771.69;;;10.81;54.22
20987;BME280;10652;50.306;8.570;2023-05-02T18:15:58;98776.44;;;10.72;54.52
20987;BME280;10652;50.306;8.570;2023-05-02T18:20:00;98791.59;;;10.64;55.06
20987;BME280;10652;50.306;8.570;2023-05-02T18:24:05;98793.59;;;10.57;55.89
20987;BME280;10652;50.306;8.570;2023-05-02T18:28:07;98808.00;;;10.45;55.63
20987;BME280;10652;50.306;8.570;2023-05-02T18:32:10;98802.44;;;10.30;56.04
20987;BME280;10652;50.306;8.570;2023-05-02T18:36:13;98808.94;;;10.18;56.33
20987;BME280;10652;50.306;8.570;2023-05-02T18:40:15;98810.25;;;10.05;56.96
20987;BME280;10652;50.306;8.570;2023-05-02T18:44:17;98810.69;;;9.91;57.16
20987;BME280;10652;50.306;8.570;2023-05-02T18:48:19;98817.09;;;9.83;57.31
20987;BME280;10652;50.306;8.570;2023-05-02T18:52:21;98826.50;;;9.60;57.26
20987;BME280;10652;50.306;8.570;2023-05-02T18:56:23;98831.22;;;9.20;58.73
20987;BME280;10652;50.306;8.570;2023-05-02T19:00:27;98847.75;;;8.93;59.44
20987;BME280;10652;50.306;8.570;2023-05-02T19:04:32;98851.72;;;8.75;59.96
20987;BME280;10652;50.306;8.570;2023-05-02T19:08:34;98853.88;;;8.59;60.93
20987;BME280;10652;50.306;8.570;2023-05-02T19:12:36;98856.06;;;8.42;61.27
20987;BME280;10652;50.306;8.570;2023-05-02T19:16:38;98867.09;;;8.21;62.33
20987;BME280;10652;50.306;8.570;2023-05-02T19:20:43;98872.66;;;8.06;62.53
20987;BME280;10652;50.306;8.570;2023-05-02T19:24:45;98882.34;;;8.02;62.36
20987;BME280;10652;50.306;8.570;2023-05-02T19:28:47;98877.31;;;7.93;62.72
20987;BME280;10652;50.306;8.570;2023-05-02T19:32:49;98889.81;;;7.80;62.99
20987;BME280;10652;50.306;8.570;2023-05-02T19:36:51;98898.69;;;7.73;62.95
20987;BME280;10652;50.306;8.570;2023-05-02T19:40:53;98901.44;;;7.67;63.26
20987;BME280;10652;50.306;8.570;2023-05-02T19:44:55;98907.75;;;7.57;63.49
20987;BME280;10652;50.306;8.570;2023-05-02T19:48:57;98921.91;;;7.47;63.97
20987;BME280;10652;50.306;8.570;2023-05-02T19:52:59;98911.66;;;7.36;64.78
20987;BME280;10652;50.306;8.570;2023-05-02T19:57:02;98924.91;;;7.29;65.21
20987;BME280;10652;50.306;8.570;2023-05-02T20:01:05;98917.25;;;7.20;65.77
20987;BME280;10652;50.306;8.570;2023-05-02T20:05:07;98918.09;;;7.22;66.92
20987;BME280;10652;50.306;8.570;2023-05-02T20:09:09;98926.00;;;7.17;66.79
20987;BME280;10652;50.306;8.570;2023-05-02T20:13:12;98926.22;;;7.05;66.71
20987;BME280;10652;50.306;8.570;2023-05-02T20:17:14;98934.28;;;6.95;67.25
20987;BME280;10652;50.306;8.570;2023-05-02T20:21:16;98929.25;;;6.82;67.68
20987;BME280;10652;50.306;8.570;2023-05-02T20:25:19;98938.97;;;6.76;68.15
20987;BME280;10652;50.306;8.570;2023-05-02T20:29:21;98940.81;;;6.68;68.56
20987;BME280;10652;50.306;8.570;2023-05-02T20:33:23;98949.69;;;6.59;70.02
20987;BME280;10652;50.306;8.570;2023-05-02T20:37:34;98948.94;;;6.51;69.60
20987;BME280;10652;50.306;8.570;2023-05-02T20:41:36;98958.78;;;6.35;70.11
20987;BME280;10652;50.306;8.570;2023-05-02T20:45:38;98961.47;;;6.29;70.49
20987;BME280;10652;50.306;8.570;2023-05-02T20:49:41;98960.63;;;6.26;70.48
20987;BME280;10652;50.306;8.570;2023-05-02T20:53:43;98965.09;;;6.18;70.77
20987;BME280;10652;50.306;8.570;2023-05-02T20:57:45;98972.16;;;6.13;71.08
20987;BME280;10652;50.306;8.570;2023-05-02T21:01:51;98968.75;;;6.08;70.90
20987;BME280;10652;50.306;8.570;2023-05-02T21:05:55;98977.44;;;6.07;71.25
20987;BME280;10652;50.306;8.570;2023-05-02T21:09:57;98975.78;;;5.99;70.85
20987;BME280;10652;50.306;8.570;2023-05-02T21:14:00;98986.34;;;5.90;71.18
20987;BME280;10652;50.306;8.570;2023-05-02T21:18:03;98983.06;;;5.76;71.59
20987;BME280;10652;50.306;8.570;2023-05-02T21:22:05;98978.75;;;5.74;71.92
20987;BME280;10652;50.306;8.570;2023-05-02T21:26:07;98980.44;;;5.78;72.09
20987;BME280;10652;50.306;8.570;2023-05-02T21:30:09;98985.69;;;5.76;71.69
20987;BME280;10652;50.306;8.570;2023-05-02T21:34:11;98992.69;;;5.71;71.32
20987;BME280;10652;50.306;8.570;2023-05-02T21:38:13;98990.16;;;5.65;71.79
20987;BME280;10652;50.306;8.570;2023-05-02T21:42:15;98995.31;;;5.68;72.01
20987;BME280;10652;50.306;8.570;2023-05-02T21:46:17;98999.66;;;5.71;72.38
20987;BME280;10652;50.306;8.570;2023-05-02T21:50:20;98984.06;;;5.66;71.75
20987;BME280;10652;50.306;8.570;2023-05-02T21:54:22;98995.44;;;5.59;71.90
20987;BME280;10652;50.306;8.570;2023-05-02T21:58:24;98984.19;;;5.55;71.63
20987;BME280;10652;50.306;8.570;2023-05-02T22:02:26;98983.41;;;5.49;72.10
20987;BME280;10652;50.306;8.570;2023-05-02T22:06:29;98981.84;;;5.36;72.55
20987;BME280;10652;50.306;8.570;2023-05-02T22:10:33;98982.91;;;5.17;72.95
20987;BME280;10652;50.306;8.570;2023-05-02T22:14:39;98993.47;;;5.00;73.65
20987;BME280;10652;50.306;8.570;2023-05-02T22:18:46;98991.00;;;4.86;74.42